sensor_id;sensor_type;location;lat;lon;timestamp;pressure;altitude;pressure_sealevel;temperature;humidity
51715;BME280;39115;59.332;18.034;2023-03-12T00:00:52;98948.19;;;-4.50;56.63
51715;BME280;39115;59.332;18.034;2023-03-12T00:03:12;98944.00;;;-4.52;56.66
51715;BME280;39115;59.332;18.034;2023-03-12T00:05:36;98939.72;;;-4.53;56.87
51715;BME280;39115;59.332;18.034;2023-03-12T00:07:58;98943.16;;;-4.53;56.95
51715;BME280;39115;59.332;18.034;2023-03-12T00:10:19;98946.75;;;-4.55;56.99
51715;BME280;39115;59.332;18.034;2023-03-12T00:12:39;98946.75;;;-4.55;57.15
51715;BME280;39115;59.332;18.034;2023-03-12T00:15:00;98950.38;;;-4.58;56.76
51715;BME280;39115;59.332;18.034;2023-03-12T00:17:21;98948.59;;;-4.57;57.04
51715;BME280;39115;59.332;18.034;2023-03-12T00:19:41;98952.97;;;-4.58;57.24
51715;BME280;39115;59.332;18.034;2023-03-12T00:22:01;98947.09;;;-4.62;56.99
51715;BME280;39115;59.332;18.034;2023-03-12T00:24:22;98948.00;;;-4.63;57.22
51715;BME280;39115;59.332;18.034;2023-03-12T00:26:43;98949.78;;;-4.63;56.97
51715;BME280;39115;59.332;18.034;2023-03-12T00:29:03;98943.72;;;-4.64;57.08
51715;BME280;39115;59.332;18.034;2023-03-12T00:31:27;98946.34;;;-4.64;57.74
51715;BME280;39115;59.332;18.034;2023-03-12T00:33:48;98943.81;;;-4.65;57.45
51715;BME280;39115;59.332;18.034;2023-03-12T00:36:09;98947.25;;;-4.65;57.55
51715;BME280;39115;59.332;18.034;2023-03-12T00:38:30;98941.31;;;-4.67;57.47
51715;BME280;39115;59.332;18.034;2023-03-12T00:40:50;98943.06;;;-4.67;57.47
51715;BME280;39115;59.332;18.034;2023-03-12T00:43:11;98943.91;;;-4.67;57.23
51715;BME280;39115;59.332;18.034;2023-03-12T00:45:32;98940.31;;;-4.64;58.15
51715;BME280;39115;59.332;18.034;2023-03-12T00:47:52;98944.66;;;-4.65;57.98
51715;BME280;39115;59.332;18.034;2023-03-12T00:50:13;98941.03;;;-4.62;57.54
51715;BME280;39115;59.332;18.034;2023-03-12T00:52:33;98939.22;;;-4.60;57.70
51715;BME280;39115;59.332;18.034;2023-03-12T00:54:54;98944.31;;;-4.58;57.80
51715;BME280;39115;59.332;18.034;2023-03-12T00:57:17;98946.84;;;-4.57;57.67
51715;BME280;39115;59.332;18.034;2023-03-12T00:59:37;98951.03;;;-4.54;58.34
51715;BME280;39115;59.332;18.034;2023-03-12T01:01:59;98948.53;;;-4.56;58.15
51715;BME280;39115;59.332;18.034;2023-03-12T01:04:20;98950.13;;;-4.53;58.13
51715;BME280;39115;59.332;18.034;2023-03-12T01:06:40;98941.47;;;-4.54;57.82
51715;BME280;39115;59.332;18.034;2023-03-12T01:09:03;98941.41;;;-4.52;57.80
51715;BME280;39115;59.332;18.034;2023-03-12T01:11:24;98943.25;;;-4.54;57.93
51715;BME280;39115;59.332;18.034;2023-03-12T01:13:45;98944.25;;;-4.57;58.10
51715;BME280;39115;59.332;18.034;2023-03-12T01:16:06;98939.13;;;-4.58;58.10
51715;BME280;39115;59.332;18.034;2023-03-12T01:18:26;98945.31;;;-4.61;57.90
51715;BME280;39115;59.332;18.034;2023-03-12T01:20:47;98939.31;;;-4.62;58.16
51715;BME280;39115;59.332;18.034;2023-03-12T01:23:08;98946.34;;;-4.64;58.36
51715;BME280;39115;59.332;18.034;2023-03-12T01:25:28;98947.25;;;-4.65;57.87
51715;BME280;39115;59.332;18.034;2023-03-12T01:27:49;98956.81;;;-4.65;57.95
51715;BME280;39115;59.332;18.034;2023-03-12T01:30:10;98954.22;;;-4.65;58.39
51715;BME280;39115;59.332;18.034;2023-03-12T01:32:31;98953.44;;;-4.67;58.20
51715;BME280;39115;59.332;18.034;2023-03-12T01:34:52;98956.91;;;-4.67;58.48
51715;BME280;39115;59.332;18.034;2023-03-12T01:37:12;98951.72;;;-4.67;58.19
51715;BME280;39115;59.332;18.034;2023-03-12T01:39:33;98952.63;;;-4.68;58.62
51715;BME280;39115;59.332;18.034;2023-03-12T01:41:53;98951.88;;;-4.70;57.94
51715;BME280;39115;59.332;18.034;2023-03-12T01:44:14;98952.00;;;-4.73;58.20
51715;BME280;39115;59.332;18.034;2023-03-12T01:46:36;98950.28;;;-4.72;58.20
51715;BME280;39115;59.332;18.034;2023-03-12T01:49:02;98951.19;;;-4.73;57.97
51715;BME280;39115;59.332;18.034;2023-03-12T01:51:26;98948.69;;;-4.75;58.21
51715;BME280;39115;59.332;18.034;2023-03-12T01:53:50;98951.34;;;-4.77;58.47
51715;BME280;39115;59.332;18.034;2023-03-12T01:56:12;98947.16;;;-4.79;58.51
51715;BME280;39115;59.332;18.034;2023-03-12T01:58:36;98957.53;;;-4.79;58.55
51715;BME280;39115;59.332;18.034;2023-03-12T02:00:59;98950.66;;;-4.80;58.02
51715;BME280;39115;59.332;18.034;2023-03-12T02:03:20;98956.78;;;-4.81;58.47
51715;BME280;39115;59.332;18.034;2023-03-12T02:05:44;98955.13;;;-4.82;58.37
51715;BME280;39115;59.332;18.034;2023-03-12T02:08:08;98965.56;;;-4.84;58.39
51715;BME280;39115;59.332;18.034;2023-03-12T02:10:28;98960.47;;;-4.85;58.36
51715;BME280;39115;59.332;18.034;2023-03-12T02:12:49;98965.66;;;-4.85;58.85
51715;BME280;39115;59.332;18.034;2023-03-12T02:15:10;98966.47;;;-4.85;58.87
51715;BME280;39115;59.332;18.034;2023-03-12T02:17:31;98973.44;;;-4.85;58.63
51715;BME280;39115;59.332;18.034;2023-03-12T02:20:21;98972.59;;;-4.86;58.58
51715;BME280;39115;59.332;18.034;2023-03-12T02:22:41;98973.69;;;-4.90;58.51
51715;BME280;39115;59.332;18.034;2023-03-12T02:27:36;98980.13;;;-4.97;59.05
51715;BME280;39115;59.332;18.034;2023-03-12T02:29:58;98983.72;;;-5.00;58.56
51715;BME280;39115;59.332;18.034;2023-03-12T02:32:38;98985.53;;;-5.02;58.49
51715;BME280;39115;59.332;18.034;2023-03-12T02:34:59;98990.81;;;-5.03;59.00
51715;BME280;39115;59.332;18.034;2023-03-12T02:37:19;98986.69;;;-5.08;58.73
51715;BME280;39115;59.332;18.034;2023-03-12T02:39:41;99003.16;;;-5.09;58.66
51715;BME280;39115;59.332;18.034;2023-03-12T02:42:03;98995.66;;;-5.13;58.68
51715;BME280;39115;59.332;18.034;2023-03-12T02:44:26;98999.22;;;-5.16;58.77
51715;BME280;39115;59.332;18.034;2023-03-12T02:46:53;99003.72;;;-5.19;58.48
51715;BME280;39115;59.332;18.034;2023-03-12T02:49:15;99000.53;;;-5.25;58.60
51715;BME280;39115;59.332;18.034;2023-03-12T02:51:36;99012.72;;;-5.27;58.47
51715;BME280;39115;59.332;18.034;2023-03-12T02:53:57;99008.53;;;-5.29;58.67
51715;BME280;39115;59.332;18.034;2023-03-12T02:56:17;99013.03;;;-5.33;58.65
51715;BME280;39115;59.332;18.034;2023-03-12T02:58:38;99016.63;;;-5.35;58.51
51715;BME280;39115;59.332;18.034;2023-03-12T03:00:58;99015.84;;;-5.37;58.39
51715;BME280;39115;59.332;18.034;2023-03-12T03:03:19;99012.50;;;-5.40;58.29
51715;BME280;39115;59.332;18.034;2023-03-12T03:05:40;99014.25;;;-5.40;58.21
51715;BME280;39115;59.332;18.034;2023-03-12T03:08:00;99025.69;;;-5.44;58.41
51715;BME280;39115;59.332;18.034;2023-03-12T03:10:20;99024.03;;;-5.45;58.43
51715;BME280;39115;59.332;18.034;2023-03-12T03:12:41;99024.09;;;-5.47;58.28
51715;BME280;39115;59.332;18.034;2023-03-12T03:15:03;99022.34;;;-5.46;58.69
51715;BME280;39115;59.332;18.034;2023-03-12T03:17:24;99028.44;;;-5.47;58.28
51715;BME280;39115;59.332;18.034;2023-03-12T03:19:45;99028.53;;;-5.49;58.43
51715;BME280;39115;59.332;18.034;2023-03-12T03:22:05;99028.66;;;-5.52;58.13
51715;BME280;39115;59.332;18.034;2023-03-12T03:24:26;99046.91;;;-5.53;58.17
51715;BME280;39115;59.332;18.034;2023-03-12T03:26:46;99047.03;;;-5.57;57.77
51715;BME280;39115;59.332;18.034;2023-03-12T03:29:07;99054.00;;;-5.57;58.12
51715;BME280;39115;59.332;18.034;2023-03-12T03:31:28;99054.91;;;-5.58;58.06
51715;BME280;39115;59.332;18.034;2023-03-12T03:33:48;99060.22;;;-5.61;58.20
51715;BME280;39115;59.332;18.034;2023-03-12T03:36:10;99068.91;;;-5.62;58.07
51715;BME280;39115;59.332;18.034;2023-03-12T03:38:31;99061.22;;;-5.64;57.83
51715;BME280;39115;59.332;18.034;2023-03-12T03:40:53;99063.00;;;-5.64;58.41
51715;BME280;39115;59.332;18.034;2023-03-12T03:43:13;99061.22;;;-5.64;58.02
51715;BME280;39115;59.332;18.034;2023-03-12T03:45:34;99053.44;;;-5.64;58.15
51715;BME280;39115;59.332;18.034;2023-03-12T03:47:54;99059.44;;;-5.63;57.71
51715;BME280;39115;59.332;18.034;2023-03-12T03:50:15;99069.81;;;-5.63;58.17
51715;BME280;39115;59.332;18.034;2023-03-12T03:52:36;99068.09;;;-5.63;57.94
51715;BME280;39115;59.332;18.034;2023-03-12T03:54:56;99075.88;;;-5.63;58.11
51715;BME280;39115;59.332;18.034;2023-03-12T03:57:18;99074.25;;;-5.65;58.02
51715;BME280;39115;59.332;18.034;2023-03-12T03:59:39;99081.13;;;-5.64;57.92
51715;BME280;39115;59.332;18.034;2023-03-12T04:01:59;99087.06;;;-5.62;57.85
51715;BME280;39115;59.332;18.034;2023-03-12T04:04:21;99087.06;;;-5.62;57.58
51715;BME280;39115;59.332;18.034;2023-03-12T04:06:41;99083.66;;;-5.63;57.94
51715;BME280;39115;59.332;18.034;2023-03-12T04:09:02;99094.00;;;-5.63;57.97
51715;BME280;39115;59.332;18.034;2023-03-12T04:11:23;99094.00;;;-5.63;57.68
51715;BME280;39115;59.332;18.034;2023-03-12T04:13:44;99091.63;;;-5.67;58.06
51715;BME280;39115;59.332;18.034;2023-03-12T04:16:06;99100.19;;;-5.65;57.58
51715;BME280;39115;59.332;18.034;2023-03-12T04:18:26;99097.59;;;-5.65;57.96
51715;BME280;39115;59.332;18.034;2023-03-12T04:20:47;99097.59;;;-5.65;57.71
51715;BME280;39115;59.332;18.034;2023-03-12T04:23:07;99103.63;;;-5.65;57.61
51715;BME280;39115;59.332;18.034;2023-03-12T04:25:28;99110.47;;;-5.64;57.78
51715;BME280;39115;59.332;18.034;2023-03-12T04:27:48;99111.31;;;-5.63;57.96
51715;BME280;39115;59.332;18.034;2023-03-12T04:30:09;99120.84;;;-5.64;57.95
51715;BME280;39115;59.332;18.034;2023-03-12T04:32:30;99115.75;;;-5.65;57.96
51715;BME280;39115;59.332;18.034;2023-03-12T04:34:50;99120.97;;;-5.67;57.79
51715;BME280;39115;59.332;18.034;2023-03-12T04:37:11;99119.34;;;-5.68;58.04
51715;BME280;39115;59.332;18.034;2023-03-12T04:39:34;99118.38;;;-5.67;57.81
51715;BME280;39115;59.332;18.034;2023-03-12T04:41:55;99110.78;;;-5.70;57.46
51715;BME280;39115;59.332;18.034;2023-03-12T04:44:15;99122.66;;;-5.66;57.88
51715;BME280;39115;59.332;18.034;2023-03-12T04:46:36;99118.47;;;-5.68;58.07
51715;BME280;39115;59.332;18.034;2023-03-12T04:48:56;99131.53;;;-5.70;58.22
51715;BME280;39115;59.332;18.034;2023-03-12T04:51:17;99130.75;;;-5.72;57.54
51715;BME280;39115;59.332;18.034;2023-03-12T04:53:38;99136.84;;;-5.73;58.14
51715;BME280;39115;59.332;18.034;2023-03-12T04:55:59;99125.63;;;-5.74;58.01
51715;BME280;39115;59.332;18.034;2023-03-12T04:58:20;99140.28;;;-5.73;58.01
51715;BME280;39115;59.332;18.034;2023-03-12T05:00:41;99135.94;;;-5.72;58.02
51715;BME280;39115;59.332;18.034;2023-03-12T05:03:02;99135.03;;;-5.71;58.07
51715;BME280;39115;59.332;18.034;2023-03-12T05:05:22;99143.50;;;-5.67;58.06
51715;BME280;39115;59.332;18.034;2023-03-12T05:07:43;99152.09;;;-5.67;58.36
51715;BME280;39115;59.332;18.034;2023-03-12T05:10:04;99151.19;;;-5.66;58.32
51715;BME280;39115;59.332;18.034;2023-03-12T05:12:25;99160.53;;;-5.62;58.63
51715;BME280;39115;59.332;18.034;2023-03-12T05:14:45;99159.47;;;-5.58;58.50
51715;BME280;39115;59.332;18.034;2023-03-12T05:17:05;99162.75;;;-5.54;58.51
51715;BME280;39115;59.332;18.034;2023-03-12T05:19:26;99165.13;;;-5.49;58.26
51715;BME280;39115;59.332;18.034;2023-03-12T05:21:46;99171.00;;;-5.46;58.28
51715;BME280;39115;59.332;18.034;2023-03-12T05:24:08;99181.25;;;-5.43;57.94
51715;BME280;39115;59.332;18.034;2023-03-12T05:26:31;99172.56;;;-5.42;58.48
51715;BME280;39115;59.332;18.034;2023-03-12T05:28:53;99181.03;;;-5.38;58.27
51715;BME280;39115;59.332;18.034;2023-03-12T05:31:14;99183.44;;;-5.33;58.02
51715;BME280;39115;59.332;18.034;2023-03-12T05:33:34;99176.38;;;-5.31;58.11
51715;BME280;39115;59.332;18.034;2023-03-12T05:35:55;99182.28;;;-5.28;58.02
51715;BME280;39115;59.332;18.034;2023-03-12T05:38:15;99183.03;;;-5.26;57.93
51715;BME280;39115;59.332;18.034;2023-03-12T05:40:36;99182.84;;;-5.21;58.19
51715;BME280;39115;59.332;18.034;2023-03-12T05:42:56;99176.72;;;-5.20;58.35
51715;BME280;39115;59.332;18.034;2023-03-12T05:45:17;99181.72;;;-5.15;58.43
51715;BME280;39115;59.332;18.034;2023-03-12T05:47:38;99190.97;;;-5.10;58.57
51715;BME280;39115;59.332;18.034;2023-03-12T05:49:59;99190.72;;;-5.05;58.51
51715;BME280;39115;59.332;18.034;2023-03-12T05:52:19;99190.56;;;-5.02;58.46
51715;BME280;39115;59.332;18.034;2023-03-12T05:54:40;99199.91;;;-4.98;58.62
51715;BME280;39115;59.332;18.034;2023-03-12T05:57:00;99198.91;;;-4.95;58.80
51715;BME280;39115;59.332;18.034;2023-03-12T05:59:22;99203.88;;;-4.90;58.88
51715;BME280;39115;59.332;18.034;2023-03-12T06:01:43;99209.69;;;-4.85;58.59
51715;BME280;39115;59.332;18.034;2023-03-12T06:04:04;99207.00;;;-4.84;58.72
51715;BME280;39115;59.332;18.034;2023-03-12T06:06:24;99211.22;;;-4.81;59.16
51715;BME280;39115;59.332;18.034;2023-03-12T06:08:45;99211.97;;;-4.79;58.73
51715;BME280;39115;59.332;18.034;2023-03-12T06:11:06;99214.44;;;-4.76;58.88
51715;BME280;39115;59.332;18.034;2023-03-12T06:13:26;99222.97;;;-4.74;58.91
51715;BME280;39115;59.332;18.034;2023-03-12T06:15:48;99227.13;;;-4.70;59.33
51715;BME280;39115;59.332;18.034;2023-03-12T06:18:09;99233.09;;;-4.68;59.07
51715;BME280;39115;59.332;18.034;2023-03-12T06:20:29;99237.38;;;-4.67;58.82
51715;BME280;39115;59.332;18.034;2023-03-12T06:22:50;99238.97;;;-4.64;59.01
51715;BME280;39115;59.332;18.034;2023-03-12T06:25:10;99245.00;;;-4.64;58.90
51715;BME280;39115;59.332;18.034;2023-03-12T06:27:31;99248.28;;;-4.60;59.06
51715;BME280;39115;59.332;18.034;2023-03-12T06:29:51;99259.31;;;-4.55;59.19
51715;BME280;39115;59.332;18.034;2023-03-12T06:32:13;99251.34;;;-4.52;58.95
51715;BME280;39115;59.332;18.034;2023-03-12T06:34:34;99252.03;;;-4.48;58.78
51715;BME280;39115;59.332;18.034;2023-03-12T06:36:54;99257.91;;;-4.45;58.70
51715;BME280;39115;59.332;18.034;2023-03-12T06:39:15;99261.16;;;-4.39;59.04
51715;BME280;39115;59.332;18.034;2023-03-12T06:41:36;99268.69;;;-4.35;58.69
51715;BME280;39115;59.332;18.034;2023-03-12T06:43:56;99278.03;;;-4.31;59.03
51715;BME280;39115;59.332;18.034;2023-03-12T06:46:19;99280.41;;;-4.26;58.73
51715;BME280;39115;59.332;18.034;2023-03-12T06:48:44;99273.13;;;-4.19;59.02
51715;BME280;39115;59.332;18.034;2023-03-12T06:51:10;99278.72;;;-4.09;59.23
51715;BME280;39115;59.332;18.034;2023-03-12T06:53:31;99289.63;;;-4.03;59.06
51715;BME280;39115;59.332;18.034;2023-03-12T06:55:52;99285.09;;;-3.99;59.02
51715;BME280;39115;59.332;18.034;2023-03-12T06:58:12;99290.84;;;-3.92;59.15
51715;BME280;39115;59.332;18.034;2023-03-12T07:00:33;99294.03;;;-3.87;58.88
51715;BME280;39115;59.332;18.034;2023-03-12T07:02:54;99295.50;;;-3.82;58.97
51715;BME280;39115;59.332;18.034;2023-03-12T07:05:14;99302.97;;;-3.75;59.04
51715;BME280;39115;59.332;18.034;2023-03-12T07:07:35;99299.13;;;-3.68;58.93
51715;BME280;39115;59.332;18.034;2023-03-12T07:09:55;99309.25;;;-3.62;59.64
51715;BME280;39115;59.332;18.034;2023-03-12T07:12:15;99311.59;;;-3.57;59.08
51715;BME280;39115;59.332;18.034;2023-03-12T07:14:36;99308.75;;;-3.53;59.44
51715;BME280;39115;59.332;18.034;2023-03-12T07:16:57;99311.06;;;-3.46;59.12
51715;BME280;39115;59.332;18.034;2023-03-12T07:19:18;99317.84;;;-3.44;59.09
51715;BME280;39115;59.332;18.034;2023-03-12T07:21:38;99325.91;;;-3.33;59.19
51715;BME280;39115;59.332;18.034;2023-03-12T07:23:59;99330.72;;;-3.25;59.18
51715;BME280;39115;59.332;18.034;2023-03-12T07:26:20;99337.06;;;-3.13;59.33
51715;BME280;39115;59.332;18.034;2023-03-12T07:28:41;99332.19;;;-3.03;59.20
51715;BME280;39115;59.332;18.034;2023-03-12T07:31:03;99341.19;;;-2.93;59.03
51715;BME280;39115;59.332;18.034;2023-03-12T07:33:23;99342.53;;;-2.86;59.17
51715;BME280;39115;59.332;18.034;2023-03-12T07:35:45;99344.28;;;-2.70;59.57
51715;BME280;39115;59.332;18.034;2023-03-12T07:38:07;99344.28;;;-2.54;58.85
51715;BME280;39115;59.332;18.034;2023-03-12T07:40:27;99348.63;;;-2.39;59.34
51715;BME280;39115;59.332;18.034;2023-03-12T07:42:49;99347.66;;;-2.22;59.15
51715;BME280;39115;59.332;18.034;2023-03-12T07:45:10;99342.53;;;-2.07;58.86
51715;BME280;39115;59.332;18.034;2023-03-12T07:47:31;99355.59;;;-1.93;58.80
51715;BME280;39115;59.332;18.034;2023-03-12T07:49:51;99358.25;;;-1.78;59.03
51715;BME280;39115;59.332;18.034;2023-03-12T07:52:13;99363.59;;;-1.65;58.84
51715;BME280;39115;59.332;18.034;2023-03-12T07:54:33;99362.19;;;-1.56;58.76
51715;BME280;39115;59.332;18.034;2023-03-12T07:56:54;99375.72;;;-1.50;58.76
51715;BME280;39115;59.332;18.034;2023-03-12T07:59:14;99366.69;;;-1.44;58.74
51715;BME280;39115;59.332;18.034;2023-03-12T08:01:35;99372.94;;;-1.32;58.56
51715;BME280;39115;59.332;18.034;2023-03-12T08:03:57;99371.00;;;-1.29;58.82
51715;BME280;39115;59.332;18.034;2023-03-12T08:06:18;99377.16;;;-1.30;58.55
51715;BME280;39115;59.332;18.034;2023-03-12T08:08:38;99378.25;;;-1.34;58.74
51715;BME280;39115;59.332;18.034;2023-03-12T08:11:03;99373.03;;;-1.34;58.63
51715;BME280;39115;59.332;18.034;2023-03-12T08:13:24;99372.56;;;-1.26;58.63
51715;BME280;39115;59.332;18.034;2023-03-12T08:15:45;99365.66;;;-1.27;58.51
51715;BME280;39115;59.332;18.034;2023-03-12T08:18:05;99369.84;;;-1.24;58.47
51715;BME280;39115;59.332;18.034;2023-03-12T08:20:26;99374.31;;;-1.12;58.36
51715;BME280;39115;59.332;18.034;2023-03-12T08:22:46;99384.03;;;-1.00;58.30
51715;BME280;39115;59.332;18.034;2023-03-12T08:25:07;99379.56;;;-0.83;58.19
51715;BME280;39115;59.332;18.034;2023-03-12T08:27:28;99380.72;;;-0.60;57.80
51715;BME280;39115;59.332;18.034;2023-03-12T08:29:48;99381.06;;;-0.52;57.43
51715;BME280;39115;59.332;18.034;2023-03-12T08:32:09;99381.53;;;-0.45;57.69
51715;BME280;39115;59.332;18.034;2023-03-12T08:34:30;99396.34;;;-0.45;57.70
51715;BME280;39115;59.332;18.034;2023-03-12T08:36:50;99392.38;;;-0.51;57.67
51715;BME280;39115;59.332;18.034;2023-03-12T08:39:11;99403.81;;;-0.67;57.64
51715;BME280;39115;59.332;18.034;2023-03-12T08:41:31;99393.72;;;-0.87;58.11
51715;BME280;39115;59.332;18.034;2023-03-12T08:43:52;99416.78;;;-0.94;58.19
51715;BME280;39115;59.332;18.034;2023-03-12T08:46:12;99398.19;;;-1.04;58.09
51715;BME280;39115;59.332;18.034;2023-03-12T08:48:33;99410.81;;;-1.10;58.29
51715;BME280;39115;59.332;18.034;2023-03-12T08:50:55;99411.66;;;-1.10;58.36
51715;BME280;39115;59.332;18.034;2023-03-12T08:53:16;99416.31;;;-1.01;58.13
51715;BME280;39115;59.332;18.034;2023-03-12T08:55:37;99409.78;;;-0.93;57.92
51715;BME280;39115;59.332;18.034;2023-03-12T08:57:57;99419.09;;;-0.89;57.75
51715;BME280;39115;59.332;18.034;2023-03-12T09:00:18;99418.53;;;-0.80;57.71
51715;BME280;39115;59.332;18.034;2023-03-12T09:02:38;99421.34;;;-0.69;57.54
51715;BME280;39115;59.332;18.034;2023-03-12T09:04:59;99413.00;;;-0.61;57.52
51715;BME280;39115;59.332;18.034;2023-03-12T09:07:19;99416.44;;;-0.46;57.58
51715;BME280;39115;59.332;18.034;2023-03-12T09:09:41;99413.91;;;-0.33;57.31
51715;BME280;39115;59.332;18.034;2023-03-12T09:12:02;99429.00;;;-0.24;57.30
51715;BME280;39115;59.332;18.034;2023-03-12T09:14:23;99432.63;;;-0.12;57.16
51715;BME280;39115;59.332;18.034;2023-03-12T09:16:43;99425.94;;;-0.03;56.89
51715;BME280;39115;59.332;18.034;2023-03-12T09:19:04;99435.91;;;0.05;56.98
51715;BME280;39115;59.332;18.034;2023-03-12T09:21:24;99424.84;;;0.14;56.67
51715;BME280;39115;59.332;18.034;2023-03-12T09:23:45;99425.47;;;0.18;56.83
51715;BME280;39115;59.332;18.034;2023-03-12T09:26:10;99434.81;;;0.22;56.50
51715;BME280;39115;59.332;18.034;2023-03-12T09:28:31;99437.13;;;0.26;56.50
51715;BME280;39115;59.332;18.034;2023-03-12T09:30:51;99449.53;;;0.37;56.76
51715;BME280;39115;59.332;18.034;2023-03-12T09:33:12;99443.25;;;0.40;56.37
51715;BME280;39115;59.332;18.034;2023-03-12T09:35:34;99450.78;;;0.44;56.38
51715;BME280;39115;59.332;18.034;2023-03-12T09:37:56;99454.03;;;0.48;56.29
51715;BME280;39115;59.332;18.034;2023-03-12T09:40:20;99451.75;;;0.56;56.42
51715;BME280;39115;59.332;18.034;2023-03-12T09:42:48;99466.31;;;0.60;56.64
51715;BME280;39115;59.332;18.034;2023-03-12T09:45:26;99460.34;;;0.71;55.97
51715;BME280;39115;59.332;18.034;2023-03-12T09:47:56;99467.91;;;0.89;55.87
51715;BME280;39115;59.332;18.034;2023-03-12T09:50:37;99467.72;;;0.79;56.38
51715;BME280;39115;59.332;18.034;2023-03-12T09:53:08;99470.97;;;0.83;56.18
51715;BME280;39115;59.332;18.034;2023-03-12T09:55:41;99473.47;;;0.97;56.04
51715;BME280;39115;59.332;18.034;2023-03-12T09:58:12;99491.41;;;1.16;55.69
51715;BME280;39115;59.332;18.034;2023-03-12T10:00:34;99470.97;;;0.96;56.03
51715;BME280;39115;59.332;18.034;2023-03-12T10:06:04;99487.94;;;0.90;56.12
51715;BME280;39115;59.332;18.034;2023-03-12T10:22:58;99498.22;;;1.19;55.55
51715;BME280;39115;59.332;18.034;2023-03-12T10:25:29;99504.94;;;1.23;55.22
51715;BME280;39115;59.332;18.034;2023-03-12T10:28:10;99490.34;;;1.19;55.43
51715;BME280;39115;59.332;18.034;2023-03-12T10:30:32;99496.78;;;1.15;55.13
51715;BME280;39115;59.332;18.034;2023-03-12T10:33:05;99494.97;;;1.15;55.23
51715;BME280;39115;59.332;18.034;2023-03-12T10:35:30;99508.00;;;1.04;55.28
51715;BME280;39115;59.332;18.034;2023-03-12T10:37:53;99504.09;;;1.09;55.06
51715;BME280;39115;59.332;18.034;2023-03-12T10:40:21;99501.06;;;1.16;55.35
51715;BME280;39115;59.332;18.034;2023-03-12T10:42:42;99503.25;;;1.22;55.20
51715;BME280;39115;59.332;18.034;2023-03-12T10:47:39;99499.91;;;1.33;54.75
51715;BME280;39115;59.332;18.034;2023-03-12T10:50:36;99503.16;;;1.36;55.19
51715;BME280;39115;59.332;18.034;2023-03-12T10:53:30;99503.25;;;1.35;54.61
51715;BME280;39115;59.332;18.034;2023-03-12T10:58:25;99509.34;;;1.35;54.67
51715;BME280;39115;59.332;18.034;2023-03-12T11:00:55;99509.03;;;1.40;54.60
51715;BME280;39115;59.332;18.034;2023-03-12T11:03:20;99516.78;;;1.41;54.41
51715;BME280;39115;59.332;18.034;2023-03-12T11:05:49;99519.50;;;1.40;54.42
51715;BME280;39115;59.332;18.034;2023-03-12T11:08:26;99519.72;;;1.37;54.56
51715;BME280;39115;59.332;18.034;2023-03-12T11:10:48;99519.09;;;1.33;54.38
51715;BME280;39115;59.332;18.034;2023-03-12T11:15:49;99529.81;;;1.30;54.00
51715;BME280;39115;59.332;18.034;2023-03-12T11:20:46;99529.25;;;1.25;53.75
51715;BME280;39115;59.332;18.034;2023-03-12T11:23:15;99528.94;;;1.30;54.18
51715;BME280;39115;59.332;18.034;2023-03-12T11:25:36;99539.25;;;1.33;53.44
51715;BME280;39115;59.332;18.034;2023-03-12T11:27:59;99540.19;;;1.32;53.73
51715;BME280;39115;59.332;18.034;2023-03-12T11:30:27;99545.31;;;1.33;53.44
51715;BME280;39115;59.332;18.034;2023-03-12T11:32:49;99538.19;;;1.35;53.27
51715;BME280;39115;59.332;18.034;2023-03-12T11:35:12;99557.28;;;1.37;53.21
51715;BME280;39115;59.332;18.034;2023-03-12T11:48:14;99550.16;;;1.26;52.68
51715;BME280;39115;59.332;18.034;2023-03-12T11:59:05;99540.19;;;1.32;52.14
51715;BME280;39115;59.332;18.034;2023-03-12T12:02:00;99542.69;;;1.33;51.93
51715;BME280;39115;59.332;18.034;2023-03-12T12:04:38;99555.91;;;1.32;51.59
51715;BME280;39115;59.332;18.034;2023-03-12T12:09:53;99563.28;;;1.39;51.16
51715;BME280;39115;59.332;18.034;2023-03-12T12:20:02;99548.47;;;1.51;50.36
51715;BME280;39115;59.332;18.034;2023-03-12T12:33:32;99566.78;;;1.90;49.19
51715;BME280;39115;59.332;18.034;2023-03-12T12:35:56;99568.13;;;1.96;48.76
51715;BME280;39115;59.332;18.034;2023-03-12T12:38:46;99561.00;;;1.98;49.20
51715;BME280;39115;59.332;18.034;2023-03-12T12:41:24;99564.44;;;1.98;49.14
51715;BME280;39115;59.332;18.034;2023-03-12T12:43:46;99562.44;;;2.02;48.66
51715;BME280;39115;59.332;18.034;2023-03-12T12:46:17;99559.50;;;2.07;48.29
51715;BME280;39115;59.332;18.034;2023-03-12T12:48:52;99568.00;;;2.10;48.33
51715;BME280;39115;59.332;18.034;2023-03-12T12:51:15;99569.06;;;2.08;48.27
51715;BME280;39115;59.332;18.034;2023-03-12T12:53:46;99579.22;;;2.12;48.41
51715;BME280;39115;59.332;18.034;2023-03-12T12:59:20;99571.66;;;2.20;47.97
51715;BME280;39115;59.332;18.034;2023-03-12T13:01:44;99575.84;;;2.23;48.22
51715;BME280;39115;59.332;18.034;2023-03-12T13:04:13;99572.78;;;2.29;47.48
51715;BME280;39115;59.332;18.034;2023-03-12T13:06:56;99559.53;;;2.31;48.00
51715;BME280;39115;59.332;18.034;2023-03-12T13:09:21;99569.47;;;2.39;47.60
51715;BME280;39115;59.332;18.034;2023-03-12T13:11:44;99568.41;;;2.41;47.43
51715;BME280;39115;59.332;18.034;2023-03-12T13:19:25;99576.09;;;2.44;47.73
51715;BME280;39115;59.332;18.034;2023-03-12T13:31:56;99572.56;;;2.57;46.63
51715;BME280;39115;59.332;18.034;2023-03-12T13:36:37;99574.13;;;2.59;46.23
51715;BME280;39115;59.332;18.034;2023-03-12T13:39:16;99584.41;;;2.62;46.53
51715;BME280;39115;59.332;18.034;2023-03-12T13:41:39;99573.56;;;2.67;46.07
51715;BME280;39115;59.332;18.034;2023-03-12T13:46:48;99570.59;;;2.72;46.44
51715;BME280;39115;59.332;18.034;2023-03-12T13:49:17;99569.53;;;2.74;45.96
51715;BME280;39115;59.332;18.034;2023-03-12T13:51:58;99565.09;;;2.75;46.27
51715;BME280;39115;59.332;18.034;2023-03-12T13:54:23;99583.16;;;2.79;45.94
51715;BME280;39115;59.332;18.034;2023-03-12T13:56:54;99569.91;;;2.81;46.11
51715;BME280;39115;59.332;18.034;2023-03-12T13:59:16;99574.56;;;2.77;45.65
51715;BME280;39115;59.332;18.034;2023-03-12T14:01:40;99592.84;;;2.79;45.43
51715;BME280;39115;59.332;18.034;2023-03-12T14:04:10;99583.91;;;2.81;45.22